sensor_id;sensor_type;location;lat;lon;timestamp;pressure;altitude;pressure_sealevel;temperature;humidity
61814;BME280;57055;-35.296;149.168;2022-09-27T00:01:10;94826.32;;;11.01;75.72
61814;BME280;57055;-35.296;149.168;2022-09-27T00:03:40;94819.56;;;11.09;75.77
61814;BME280;57055;-35.296;149.168;2022-09-27T00:06:12;94820.39;;;11.08;75.51
61814;BME280;57055;-35.296;149.168;2022-09-27T00:08:42;94819.63;;;10.97;74.96
61814;BME280;57055;-35.296;149.168;2022-09-27T00:11:19;94818.32;;;10.71;75.78
61814;BME280;57055;-35.296;149.168;2022-09-27T00:13:48;94809.86;;;10.75;76.09
61814;BME280;57055;-35.296;149.168;2022-09-27T00:16:17;94807.12;;;11.09;76.34
61814;BME280;57055;-35.296;149.168;2022-09-27T00:18:46;94804.89;;;10.94;76.43
61814;BME280;57055;-35.296;149.168;2022-09-27T00:21:16;94803.91;;;11.18;75.40
61814;BME280;57055;-35.296;149.168;2022-09-27T00:23:45;94802.86;;;11.15;76.42
61814;BME280;57055;-35.296;149.168;2022-09-27T00:26:14;94802.08;;;11.27;76.08
61814;BME280;57055;-35.296;149.168;2022-09-27T00:28:43;94808.29;;;11.27;75.90
61814;BME280;57055;-35.296;149.168;2022-09-27T00:31:18;94807.84;;;11.07;75.99
61814;BME280;57055;-35.296;149.168;2022-09-27T00:33:48;94802.65;;;11.18;76.15
61814;BME280;57055;-35.296;149.168;2022-09-27T00:36:18;94804.06;;;11.22;76.33
61814;BME280;57055;-35.296;149.168;2022-09-27T00:38:48;94806.48;;;11.33;75.86
61814;BME280;57055;-35.296;149.168;2022-09-27T00:41:19;94808.17;;;11.80;75.44
61814;BME280;57055;-35.296;149.168;2022-09-27T00:43:51;94805.07;;;11.61;76.00
61814;BME280;57055;-35.296;149.168;2022-09-27T00:46:24;94804.53;;;11.49;75.29
61814;BME280;57055;-35.296;149.168;2022-09-27T00:49:02;94802.51;;;11.77;74.92
61814;BME280;57055;-35.296;149.168;2022-09-27T00:51:34;94799.99;;;11.56;75.37
61814;BME280;57055;-35.296;149.168;2022-09-27T00:54:08;94797.97;;;11.63;75.45
61814;BME280;57055;-35.296;149.168;2022-09-27T00:56:38;94796.78;;;11.66;74.10
61814;BME280;57055;-35.296;149.168;2022-09-27T00:59:10;94797.38;;;11.68;74.35
61814;BME280;57055;-35.296;149.168;2022-09-27T01:01:41;94794.45;;;11.69;74.17
61814;BME280;57055;-35.296;149.168;2022-09-27T01:04:14;94798.00;;;11.91;73.67
61814;BME280;57055;-35.296;149.168;2022-09-27T01:06:44;94797.52;;;11.77;74.98
61814;BME280;57055;-35.296;149.168;2022-09-27T01:09:13;94796.22;;;11.84;74.53
61814;BME280;57055;-35.296;149.168;2022-09-27T01:11:47;94799.73;;;11.85;74.66
61814;BME280;57055;-35.296;149.168;2022-09-27T01:14:37;94800.95;;;11.85;75.25
61814;BME280;57055;-35.296;149.168;2022-09-27T01:17:17;94796.68;;;11.86;74.94
61814;BME280;57055;-35.296;149.168;2022-09-27T01:20:11;94795.69;;;11.96;74.69
61814;BME280;57055;-35.296;149.168;2022-09-27T01:22:48;94796.69;;;12.05;75.26
61814;BME280;57055;-35.296;149.168;2022-09-27T01:25:40;94794.05;;;12.14;73.68
61814;BME280;57055;-35.296;149.168;2022-09-27T01:28:21;94787.45;;;12.23;74.40
61814;BME280;57055;-35.296;149.168;2022-09-27T01:31:02;94780.61;;;12.14;74.63
61814;BME280;57055;-35.296;149.168;2022-09-27T01:33:43;94774.60;;;12.40;74.79
61814;BME280;57055;-35.296;149.168;2022-09-27T01:36:21;94770.00;;;12.16;73.54
61814;BME280;57055;-35.296;149.168;2022-09-27T01:39:03;94765.99;;;13.12;73.70
61814;BME280;57055;-35.296;149.168;2022-09-27T01:41:37;94763.48;;;13.06;73.01
61814;BME280;57055;-35.296;149.168;2022-09-27T01:44:16;94759.48;;;12.85;72.42
61814;BME280;57055;-35.296;149.168;2022-09-27T01:46:52;94751.01;;;13.01;71.95
61814;BME280;57055;-35.296;149.168;2022-09-27T01:49:28;94743.00;;;13.33;73.08
61814;BME280;57055;-35.296;149.168;2022-09-27T01:52:02;94734.91;;;13.46;68.96
61814;BME280;57055;-35.296;149.168;2022-09-27T01:54:37;94731.05;;;13.36;69.76
61814;BME280;57055;-35.296;149.168;2022-09-27T01:57:10;94733.24;;;13.52;69.50
61814;BME280;57055;-35.296;149.168;2022-09-27T01:59:44;94730.36;;;13.64;70.05
61814;BME280;57055;-35.296;149.168;2022-09-27T02:02:16;94725.78;;;14.16;70.08
61814;BME280;57055;-35.296;149.168;2022-09-27T02:04:47;94717.56;;;14.23;67.94
61814;BME280;57055;-35.296;149.168;2022-09-27T02:07:22;94713.08;;;14.26;66.57
61814;BME280;57055;-35.296;149.168;2022-09-27T02:09:55;94707.03;;;14.20;67.41
61814;BME280;57055;-35.296;149.168;2022-09-27T02:12:29;94703.15;;;14.42;67.84
61814;BME280;57055;-35.296;149.168;2022-09-27T02:15:02;94699.98;;;14.25;66.40
61814;BME280;57055;-35.296;149.168;2022-09-27T02:17:39;94695.49;;;14.51;65.92
61814;BME280;57055;-35.296;149.168;2022-09-27T02:20:16;94697.80;;;14.46;65.65
61814;BME280;57055;-35.296;149.168;2022-09-27T02:22:49;94691.94;;;14.73;66.01
61814;BME280;57055;-35.296;149.168;2022-09-27T02:25:24;94687.69;;;14.75;64.77
61814;BME280;57055;-35.296;149.168;2022-09-27T02:27:59;94684.24;;;14.78;63.32
61814;BME280;57055;-35.296;149.168;2022-09-27T02:30:33;94684.93;;;14.39;63.37
61814;BME280;57055;-35.296;149.168;2022-09-27T02:33:02;94681.92;;;14.32;63.99
61814;BME280;57055;-35.296;149.168;2022-09-27T02:35:32;94671.62;;;14.37;63.94
61814;BME280;57055;-35.296;149.168;2022-09-27T02:38:03;94666.23;;;14.86;63.58
61814;BME280;57055;-35.296;149.168;2022-09-27T02:40:35;94660.58;;;14.39;63.60
61814;BME280;57055;-35.296;149.168;2022-09-27T02:43:10;94662.58;;;14.79;63.14
61814;BME280;57055;-35.296;149.168;2022-09-27T02:45:50;94663.91;;;14.30;63.19
61814;BME280;57055;-35.296;149.168;2022-09-27T02:48:26;94658.01;;;14.47;62.92
61814;BME280;57055;-35.296;149.168;2022-09-27T02:51:11;94646.24;;;14.50;61.52
61814;BME280;57055;-35.296;149.168;2022-09-27T02:53:55;94636.90;;;14.28;62.32
61814;BME280;57055;-35.296;149.168;2022-09-27T02:56:33;94630.00;;;14.04;62.27
61814;BME280;57055;-35.296;149.168;2022-09-27T02:59:17;94624.07;;;14.27;62.47
61814;BME280;57055;-35.296;149.168;2022-09-27T03:01:54;94622.26;;;14.63;62.15
61814;BME280;57055;-35.296;149.168;2022-09-27T03:04:33;94610.37;;;15.08;61.14
61814;BME280;57055;-35.296;149.168;2022-09-27T03:07:04;94612.72;;;15.03;59.00
61814;BME280;57055;-35.296;149.168;2022-09-27T03:09:42;94610.44;;;15.17;55.99
61814;BME280;57055;-35.296;149.168;2022-09-27T03:12:11;94605.30;;;15.36;57.02
61814;BME280;57055;-35.296;149.168;2022-09-27T03:14:41;94599.92;;;15.30;57.72
61814;BME280;57055;-35.296;149.168;2022-09-27T03:17:10;94597.85;;;15.38;57.16
61814;BME280;57055;-35.296;149.168;2022-09-27T03:19:39;94597.22;;;15.47;55.84
61814;BME280;57055;-35.296;149.168;2022-09-27T03:22:08;94578.90;;;15.42;55.88
61814;BME280;57055;-35.296;149.168;2022-09-27T03:24:37;94575.48;;;15.44;55.67
61814;BME280;57055;-35.296;149.168;2022-09-27T03:27:05;94576.89;;;15.10;55.18
61814;BME280;57055;-35.296;149.168;2022-09-27T03:29:35;94572.32;;;15.03;55.22
61814;BME280;57055;-35.296;149.168;2022-09-27T03:32:03;94573.97;;;15.24;54.05
61814;BME280;57055;-35.296;149.168;2022-09-27T03:34:33;94569.85;;;14.95;55.06
61814;BME280;57055;-35.296;149.168;2022-09-27T03:37:01;94575.12;;;14.84;55.53
61814;BME280;57055;-35.296;149.168;2022-09-27T03:39:30;94572.73;;;14.88;55.94
61814;BME280;57055;-35.296;149.168;2022-09-27T03:41:59;94575.64;;;15.06;56.27
61814;BME280;57055;-35.296;149.168;2022-09-27T03:44:27;94582.90;;;14.47;55.93
61814;BME280;57055;-35.296;149.168;2022-09-27T03:46:56;94589.99;;;14.71;56.65
61814;BME280;57055;-35.296;149.168;2022-09-27T03:49:24;94595.68;;;14.56;57.79
61814;BME280;57055;-35.296;149.168;2022-09-27T03:51:54;94599.36;;;14.67;59.67
61814;BME280;57055;-35.296;149.168;2022-09-27T03:54:23;94598.93;;;14.52;62.12
61814;BME280;57055;-35.296;149.168;2022-09-27T03:56:52;94598.45;;;14.27;63.31
61814;BME280;57055;-35.296;149.168;2022-09-27T03:59:21;94600.73;;;14.22;63.43
61814;BME280;57055;-35.296;149.168;2022-09-27T04:01:50;94600.96;;;13.84;63.79
61814;BME280;57055;-35.296;149.168;2022-09-27T04:04:19;94602.25;;;13.90;66.17
61814;BME280;57055;-35.296;149.168;2022-09-27T04:06:47;94599.25;;;13.74;66.35
61814;BME280;57055;-35.296;149.168;2022-09-27T04:09:16;94589.52;;;13.58;67.27
61814;BME280;57055;-35.296;149.168;2022-09-27T04:11:44;94586.88;;;13.42;67.17
61814;BME280;57055;-35.296;149.168;2022-09-27T04:14:13;94565.21;;;13.33;67.66
61814;BME280;57055;-35.296;149.168;2022-09-27T04:16:42;94553.17;;;13.59;67.92
61814;BME280;57055;-35.296;149.168;2022-09-27T04:19:10;94575.67;;;13.33;69.52
61814;BME280;57055;-35.296;149.168;2022-09-27T04:21:39;94583.99;;;13.33;68.51
61814;BME280;57055;-35.296;149.168;2022-09-27T04:24:08;94593.58;;;13.52;69.70
61814;BME280;57055;-35.296;149.168;2022-09-27T04:26:37;94590.89;;;13.52;70.97
61814;BME280;57055;-35.296;149.168;2022-09-27T04:29:06;94591.52;;;13.91;70.63
61814;BME280;57055;-35.296;149.168;2022-09-27T04:31:36;94583.33;;;13.89;67.35
61814;BME280;57055;-35.296;149.168;2022-09-27T04:34:06;94573.42;;;13.85;64.98
61814;BME280;57055;-35.296;149.168;2022-09-27T04:36:35;94569.21;;;13.83;63.00
61814;BME280;57055;-35.296;149.168;2022-09-27T04:39:07;94565.33;;;13.88;62.07
61814;BME280;57055;-35.296;149.168;2022-09-27T04:41:36;94566.82;;;13.89;60.81
61814;BME280;57055;-35.296;149.168;2022-09-27T04:44:05;94572.37;;;14.03;61.92
61814;BME280;57055;-35.296;149.168;2022-09-27T04:46:34;94571.13;;;13.82;59.01
61814;BME280;57055;-35.296;149.168;2022-09-27T04:49:03;94567.76;;;13.86;60.10
61814;BME280;57055;-35.296;149.168;2022-09-27T04:51:32;94567.95;;;13.73;59.79
61814;BME280;57055;-35.296;149.168;2022-09-27T04:54:00;94569.11;;;13.77;60.14
61814;BME280;57055;-35.296;149.168;2022-09-27T04:56:30;94575.04;;;14.00;59.78
61814;BME280;57055;-35.296;149.168;2022-09-27T04:58:59;94572.17;;;13.87;58.64
61814;BME280;57055;-35.296;149.168;2022-09-27T05:01:28;94576.26;;;13.86;58.67
61814;BME280;57055;-35.296;149.168;2022-09-27T05:03:57;94579.36;;;13.79;58.82
61814;BME280;57055;-35.296;149.168;2022-09-27T05:06:26;94584.72;;;13.71;58.53
61814;BME280;57055;-35.296;149.168;2022-09-27T05:08:55;94584.56;;;13.67;58.33
61814;BME280;57055;-35.296;149.168;2022-09-27T05:11:24;94582.64;;;13.69;57.19
61814;BME280;57055;-35.296;149.168;2022-09-27T05:13:54;94582.95;;;13.73;57.28
61814;BME280;57055;-35.296;149.168;2022-09-27T05:16:23;94575.99;;;13.81;56.89
61814;BME280;57055;-35.296;149.168;2022-09-27T05:18:52;94576.75;;;13.82;58.13
61814;BME280;57055;-35.296;149.168;2022-09-27T05:21:20;94571.19;;;14.19;57.28
61814;BME280;57055;-35.296;149.168;2022-09-27T05:23:49;94566.18;;;14.07;57.82
61814;BME280;57055;-35.296;149.168;2022-09-27T05:26:18;94561.82;;;13.93;56.90
61814;BME280;57055;-35.296;149.168;2022-09-27T05:28:47;94558.04;;;13.81;57.12
61814;BME280;57055;-35.296;149.168;2022-09-27T05:31:15;94552.55;;;13.78;57.67
61814;BME280;57055;-35.296;149.168;2022-09-27T05:33:44;94551.81;;;13.79;55.89
61814;BME280;57055;-35.296;149.168;2022-09-27T05:36:13;94546.17;;;13.79;56.58
61814;BME280;57055;-35.296;149.168;2022-09-27T05:38:41;94551.59;;;13.88;58.03
61814;BME280;57055;-35.296;149.168;2022-09-27T05:41:10;94548.74;;;13.89;58.24
61814;BME280;57055;-35.296;149.168;2022-09-27T05:43:38;94549.25;;;13.82;59.75
61814;BME280;57055;-35.296;149.168;2022-09-27T05:46:07;94540.70;;;13.74;60.06
61814;BME280;57055;-35.296;149.168;2022-09-27T05:48:36;94540.57;;;13.83;59.59
61814;BME280;57055;-35.296;149.168;2022-09-27T05:51:05;94540.65;;;14.12;57.84
61814;BME280;57055;-35.296;149.168;2022-09-27T05:53:34;94540.38;;;13.72;58.02
61814;BME280;57055;-35.296;149.168;2022-09-27T05:56:04;94542.50;;;14.27;56.53
61814;BME280;57055;-35.296;149.168;2022-09-27T05:58:33;94534.91;;;13.98;55.96
61814;BME280;57055;-35.296;149.168;2022-09-27T06:01:04;94521.86;;;14.07;56.44
61814;BME280;57055;-35.296;149.168;2022-09-27T06:03:34;94516.50;;;13.79;56.88
61814;BME280;57055;-35.296;149.168;2022-09-27T06:06:04;94508.64;;;14.06;56.59
61814;BME280;57055;-35.296;149.168;2022-09-27T06:08:34;94513.95;;;14.07;56.74
61814;BME280;57055;-35.296;149.168;2022-09-27T06:11:06;94513.14;;;13.80;55.58
61814;BME280;57055;-35.296;149.168;2022-09-27T06:13:36;94513.40;;;13.91;54.99
61814;BME280;57055;-35.296;149.168;2022-09-27T06:16:08;94513.26;;;13.86;56.05
61814;BME280;57055;-35.296;149.168;2022-09-27T06:18:37;94514.14;;;13.95;55.57
61814;BME280;57055;-35.296;149.168;2022-09-27T06:21:07;94521.95;;;13.90;54.52
61814;BME280;57055;-35.296;149.168;2022-09-27T06:23:36;94526.60;;;13.84;55.28
61814;BME280;57055;-35.296;149.168;2022-09-27T06:26:06;94527.50;;;13.79;55.03
61814;BME280;57055;-35.296;149.168;2022-09-27T06:28:35;94525.73;;;13.72;56.06
61814;BME280;57055;-35.296;149.168;2022-09-27T06:31:06;94519.71;;;13.67;56.34
61814;BME280;57055;-35.296;149.168;2022-09-27T06:33:36;94521.01;;;13.56;56.37
61814;BME280;57055;-35.296;149.168;2022-09-27T06:36:07;94523.03;;;13.47;57.30
61814;BME280;57055;-35.296;149.168;2022-09-27T06:38:36;94529.01;;;13.34;57.99
61814;BME280;57055;-35.296;149.168;2022-09-27T06:41:05;94534.99;;;13.23;58.31
61814;BME280;57055;-35.296;149.168;2022-09-27T06:43:34;94537.32;;;13.16;58.41
61814;BME280;57055;-35.296;149.168;2022-09-27T06:46:04;94544.05;;;13.38;59.23
61814;BME280;57055;-35.296;149.168;2022-09-27T06:48:33;94549.42;;;13.32;59.81
61814;BME280;57055;-35.296;149.168;2022-09-27T06:51:02;94556.98;;;12.98;59.71
61814;BME280;57055;-35.296;149.168;2022-09-27T06:53:32;94557.84;;;12.94;60.71
61814;BME280;57055;-35.296;149.168;2022-09-27T06:56:00;94565.91;;;13.20;60.15
61814;BME280;57055;-35.296;149.168;2022-09-27T06:58:30;94566.25;;;12.93;59.89
61814;BME280;57055;-35.296;149.168;2022-09-27T07:00:58;94581.67;;;12.92;59.73
61814;BME280;57055;-35.296;149.168;2022-09-27T07:03:27;94611.99;;;13.20;60.11
61814;BME280;57055;-35.296;149.168;2022-09-27T07:05:57;94647.17;;;13.18;60.45
61814;BME280;57055;-35.296;149.168;2022-09-27T07:08:27;94665.24;;;12.92;59.57
61814;BME280;57055;-35.296;149.168;2022-09-27T07:11:02;94684.68;;;13.36;59.63
61814;BME280;57055;-35.296;149.168;2022-09-27T07:13:31;94696.50;;;12.97;57.37
61814;BME280;57055;-35.296;149.168;2022-09-27T07:16:01;94695.30;;;12.82;58.20
61814;BME280;57055;-35.296;149.168;2022-09-27T07:18:30;94692.51;;;12.47;59.79
61814;BME280;57055;-35.296;149.168;2022-09-27T07:21:00;94677.50;;;12.40;61.91
61814;BME280;57055;-35.296;149.168;2022-09-27T07:23:29;94666.81;;;11.97;63.00
61814;BME280;57055;-35.296;149.168;2022-09-27T07:26:01;94640.08;;;11.99;62.29
61814;BME280;57055;-35.296;149.168;2022-09-27T07:28:30;94629.52;;;12.29;62.65
61814;BME280;57055;-35.296;149.168;2022-09-27T07:30:59;94625.85;;;11.75;64.32
61814;BME280;57055;-35.296;149.168;2022-09-27T07:33:28;94626.74;;;11.86;65.45
61814;BME280;57055;-35.296;149.168;2022-09-27T07:35:57;94638.28;;;11.65;66.47
61814;BME280;57055;-35.296;149.168;2022-09-27T07:38:27;94643.61;;;11.63;65.57
61814;BME280;57055;-35.296;149.168;2022-09-27T07:40:56;94646.83;;;11.90;65.67
61814;BME280;57055;-35.296;149.168;2022-09-27T07:43:24;94651.56;;;11.49;66.56
61814;BME280;57055;-35.296;149.168;2022-09-27T07:45:56;94659.35;;;11.71;66.88
61814;BME280;57055;-35.296;149.168;2022-09-27T07:48:25;94667.58;;;11.25;67.88
61814;BME280;57055;-35.296;149.168;2022-09-27T07:50:54;94667.31;;;11.35;68.80
61814;BME280;57055;-35.296;149.168;2022-09-27T07:53:22;94665.23;;;11.26;68.76
61814;BME280;57055;-35.296;149.168;2022-09-27T07:55:52;94665.27;;;11.79;69.17
61814;BME280;57055;-35.296;149.168;2022-09-27T07:58:21;94665.35;;;11.62;69.32
61814;BME280;57055;-35.296;149.168;2022-09-27T08:00:50;94663.74;;;11.41;69.55
61814;BME280;57055;-35.296;149.168;2022-09-27T08:03:19;94660.14;;;11.76;68.86
61814;BME280;57055;-35.296;149.168;2022-09-27T08:05:48;94661.59;;;11.26;68.89
61814;BME280;57055;-35.296;149.168;2022-09-27T08:08:17;94664.24;;;11.37;68.67
61814;BME280;57055;-35.296;149.168;2022-09-27T08:10:47;94662.34;;;11.25;68.45
61814;BME280;57055;-35.296;149.168;2022-09-27T08:13:16;94670.18;;;11.22;68.60
61814;BME280;57055;-35.296;149.168;2022-09-27T08:15:45;94686.19;;;11.56;68.27
61814;BME280;57055;-35.296;149.168;2022-09-27T08:18:14;94690.06;;;11.04;67.49
61814;BME280;57055;-35.296;149.168;2022-09-27T08:20:43;94696.70;;;11.23;68.33
61814;BME280;57055;-35.296;149.168;2022-09-27T08:23:12;94688.58;;;11.44;68.73
61814;BME280;57055;-35.296;149.168;2022-09-27T08:25:40;94679.69;;;11.22;69.19
61814;BME280;57055;-35.296;149.168;2022-09-27T08:28:09;94675.26;;;11.24;69.13
61814;BME280;57055;-35.296;149.168;2022-09-27T08:30:38;94674.93;;;11.46;68.50
61814;BME280;57055;-35.296;149.168;2022-09-27T08:33:07;94679.07;;;11.25;69.06
61814;BME280;57055;-35.296;149.168;2022-09-27T08:35:36;94680.53;;;11.50;69.10
61814;BME280;57055;-35.296;149.168;2022-09-27T08:38:05;94682.33;;;11.42;68.32
61814;BME280;57055;-35.296;149.168;2022-09-27T08:40:45;94683.61;;;11.09;68.60
61814;BME280;57055;-35.296;149.168;2022-09-27T08:43:24;94686.15;;;10.88;68.79
61814;BME280;57055;-35.296;149.168;2022-09-27T08:46:08;94690.64;;;11.06;68.13
61814;BME280;57055;-35.296;149.168;2022-09-27T08:48:42;94697.32;;;11.04;68.89
61814;BME280;57055;-35.296;149.168;2022-09-27T08:51:14;94695.27;;;11.05;68.66
61814;BME280;57055;-35.296;149.168;2022-09-27T08:53:50;94686.81;;;11.01;68.40
61814;BME280;57055;-35.296;149.168;2022-09-27T08:56:21;94676.73;;;10.92;68.51
61814;BME280;57055;-35.296;149.168;2022-09-27T08:58:54;94680.37;;;10.86;69.01
61814;BME280;57055;-35.296;149.168;2022-09-27T09:01:27;94683.38;;;10.73;69.21
61814;BME280;57055;-35.296;149.168;2022-09-27T09:03:58;94693.16;;;10.73;69.38
61814;BME280;57055;-35.296;149.168;2022-09-27T09:06:34;94698.07;;;10.78;69.66
61814;BME280;57055;-35.296;149.168;2022-09-27T09:09:18;94694.56;;;10.70;69.15
61814;BME280;57055;-35.296;149.168;2022-09-27T09:11:59;94693.44;;;10.65;68.90
61814;BME280;57055;-35.296;149.168;2022-09-27T09:15:02;94688.26;;;10.71;69.19
61814;BME280;57055;-35.296;149.168;2022-09-27T09:17:44;94694.54;;;10.77;69.06
61814;BME280;57055;-35.296;149.168;2022-09-27T09:20:26;94698.58;;;10.81;68.92
61814;BME280;57055;-35.296;149.168;2022-09-27T09:23:16;94705.84;;;10.76;69.27
61814;BME280;57055;-35.296;149.168;2022-09-27T09:25:55;94704.91;;;10.83;69.79
61814;BME280;57055;-35.296;149.168;2022-09-27T09:28:38;94704.21;;;10.69;69.46
61814;BME280;57055;-35.296;149.168;2022-09-27T09:31:18;94709.04;;;10.63;69.44
61814;BME280;57055;-35.296;149.168;2022-09-27T09:33:51;94707.77;;;10.75;69.62
61814;BME280;57055;-35.296;149.168;2022-09-27T09:36:26;94707.04;;;10.53;69.10
61814;BME280;57055;-35.296;149.168;2022-09-27T09:39:00;94709.84;;;10.54;69.34
61814;BME280;57055;-35.296;149.168;2022-09-27T09:41:35;94719.16;;;10.62;69.34
61814;BME280;57055;-35.296;149.168;2022-09-27T09:44:14;94717.39;;;10.65;69.35
61814;BME280;57055;-35.296;149.168;2022-09-27T09:46:49;94708.96;;;10.74;69.52
61814;BME280;57055;-35.296;149.168;2022-09-27T09:49:23;94705.55;;;10.10;69.37
61814;BME280;57055;-35.296;149.168;2022-09-27T09:51:58;94711.05;;;10.22;69.65
61814;BME280;57055;-35.296;149.168;2022-09-27T09:54:34;94712.90;;;10.16;69.40
61814;BME280;57055;-35.296;149.168;2022-09-27T09:57:09;94711.22;;;10.16;68.75
61814;BME280;57055;-35.296;149.168;2022-09-27T09:59:46;94711.53;;;10.58;68.52
61814;BME280;57055;-35.296;149.168;2022-09-27T10:02:24;94724.23;;;10.14;69.11
61814;BME280;57055;-35.296;149.168;2022-09-27T10:04:56;94723.03;;;10.19;69.53
61814;BME280;57055;-35.296;149.168;2022-09-27T10:07:25;94720.00;;;10.28;69.68
61814;BME280;57055;-35.296;149.168;2022-09-27T10:09:59;94730.26;;;10.11;69.65
61814;BME280;57055;-35.296;149.168;2022-09-27T10:12:29;94747.76;;;10.15;69.97
61814;BME280;57055;-35.296;149.168;2022-09-27T10:15:02;94759.55;;;10.25;69.75
61814;BME280;57055;-35.296;149.168;2022-09-27T10:17:37;94764.40;;;10.74;69.46
61814;BME280;57055;-35.296;149.168;2022-09-27T10:20:13;94771.81;;;10.48;69.31
61814;BME280;57055;-35.296;149.168;2022-09-27T10:22:48;94778.36;;;10.52;69.60
61814;BME280;57055;-35.296;149.168;2022-09-27T10:25:20;94782.31;;;10.33;70.32
61814;BME280;57055;-35.296;149.168;2022-09-27T10:27:51;94776.95;;;10.84;70.38
61814;BME280;57055;-35.296;149.168;2022-09-27T10:30:24;94750.23;;;10.24;69.57
61814;BME280;57055;-35.296;149.168;2022-09-27T10:32:55;94745.27;;;10.29;70.14
61814;BME280;57055;-35.296;149.168;2022-09-27T10:35:35;94754.84;;;10.51;71.43
61814;BME280;57055;-35.296;149.168;2022-09-27T10:38:24;94761.27;;;10.60;71.15
61814;BME280;57055;-35.296;149.168;2022-09-27T10:40:55;94753.49;;;10.29;71.31
61814;BME280;57055;-35.296;149.168;2022-09-27T10:43:28;94743.38;;;9.98;71.15
61814;BME280;57055;-35.296;149.168;2022-09-27T10:46:05;94742.73;;;9.91;71.73
61814;BME280;57055;-35.296;149.168;2022-09-27T10:48:35;94743.33;;;10.01;72.31
61814;BME280;57055;-35.296;149.168;2022-09-27T10:51:17;94751.86;;;10.06;72.30
61814;BME280;57055;-35.296;149.168;2022-09-27T10:53:48;94755.14;;;10.31;72.19
61814;BME280;57055;-35.296;149.168;2022-09-27T10:56:25;94753.22;;;10.06;72.37
61814;BME280;57055;-35.296;149.168;2022-09-27T10:58:55;94755.88;;;10.30;71.87
61814;BME280;57055;-35.296;149.168;2022-09-27T11:01:25;94753.59;;;10.30;71.81
61814;BME280;57055;-35.296;149.168;2022-09-27T11:03:55;94755.99;;;10.39;72.24
61814;BME280;57055;-35.296;149.168;2022-09-27T11:06:29;94760.74;;;10.42;72.54
61814;BME280;57055;-35.296;149.168;2022-09-27T11:09:16;94756.53;;;10.74;72.31
61814;BME280;57055;-35.296;149.168;2022-09-27T11:11:45;94757.01;;;10.20;71.67
61814;BME280;57055;-35.296;149.168;2022-09-27T11:14:22;94749.22;;;10.10;71.57
61814;BME280;57055;-35.296;149.168;2022-09-27T11:17:04;94739.07;;;10.19;71.91
61814;BME280;57055;-35.296;149.168;2022-09-27T11:19:48;94736.49;;;10.62;72.13
61814;BME280;57055;-35.296;149.168;2022-09-27T11:22:40;94744.23;;;10.11;71.71
61814;BME280;57055;-35.296;149.168;2022-09-27T11:25:24;94743.09;;;10.12;72.15
61814;BME280;57055;-35.296;149.168;2022-09-27T11:28:05;94734.25;;;10.38;71.86
61814;BME280;57055;-35.296;149.168;2022-09-27T11:30:48;94734.09;;;10.64;71.72
61814;BME280;57055;-35.296;149.168;2022-09-27T11:33:35;94733.65;;;10.36;71.76
61814;BME280;57055;-35.296;149.168;2022-09-27T11:36:15;94721.44;;;10.13;71.85
61814;BME280;57055;-35.296;149.168;2022-09-27T11:38:57;94706.22;;;10.14;71.65
61814;BME280;57055;-35.296;149.168;2022-09-27T11:41:39;94699.68;;;10.24;71.98
61814;BME280;57055;-35.296;149.168;2022-09-27T11:44:42;94699.39;;;10.00;71.95
61814;BME280;57055;-35.296;149.168;2022-09-27T11:47:22;94704.35;;;10.21;71.72
61814;BME280;57055;-35.296;149.168;2022-09-27T11:50:11;94706.01;;;10.07;71.92
61814;BME280;57055;-35.296;149.168;2022-09-27T11:52:55;94712.36;;;10.55;72.13
61814;BME280;57055;-35.296;149.168;2022-09-27T11:55:40;94713.58;;;9.97;71.92
61814;BME280;57055;-35.296;149.168;2022-09-27T11:58:17;94724.98;;;10.35;71.88
61814;BME280;57055;-35.296;149.168;2022-09-27T12:00:58;94734.44;;;10.03;71.99
61814;BME280;57055;-35.296;149.168;2022-09-27T12:03:50;94738.14;;;10.33;71.86
61814;BME280;57055;-35.296;149.168;2022-09-27T12:06:27;94735.38;;;9.79;72.18
61814;BME280;57055;-35.296;149.168;2022-09-27T12:09:06;94734.13;;;10.08;72.46
61814;BME280;57055;-35.296;149.168;2022-09-27T12:11:41;94737.33;;;9.83;72.52
61814;BME280;57055;-35.296;149.168;2022-09-27T12:14:18;94740.07;;;9.72;72.51
61814;BME280;57055;-35.296;149.168;2022-09-27T12:16:51;94744.30;;;10.07;72.05
61814;BME280;57055;-35.296;149.168;2022-09-27T12:19:24;94739.01;;;9.98;72.39
61814;BME280;57055;-35.296;149.168;2022-09-27T12:21:57;94734.18;;;9.86;72.38
61814;BME280;57055;-35.296;149.168;2022-09-27T12:24:29;94733.60;;;9.81;72.43
61814;BME280;57055;-35.296;149.168;2022-09-27T12:27:07;94733.54;;;9.82;72.72
61814;BME280;57055;-35.296;149.168;2022-09-27T12:29:39;94731.69;;;9.83;73.10
61814;BME280;57055;-35.296;149.168;2022-09-27T12:32:14;94733.03;;;9.90;72.95
61814;BME280;57055;-35.296;149.168;2022-09-27T12:34:50;94731.29;;;9.96;72.59
61814;BME280;57055;-35.296;149.168;2022-09-27T12:37:26;94724.30;;;9.97;72.43
61814;BME280;57055;-35.296;149.168;2022-09-27T12:39:59;94718.31;;;9.67;72.46
61814;BME280;57055;-35.296;149.168;2022-09-27T12:42:33;94715.49;;;9.80;73.02
61814;BME280;57055;-35.296;149.168;2022-09-27T12:45:09;94713.87;;;9.83;72.92
61814;BME280;57055;-35.296;149.168;2022-09-27T12:47:53;94706.43;;;9.93;72.84
61814;BME280;57055;-35.296;149.168;2022-09-27T12:50:32;94712.77;;;10.03;72.91
61814;BME280;57055;-35.296;149.168;2022-09-27T12:53:07;94714.07;;;9.99;71.60
61814;BME280;57055;-35.296;149.168;2022-09-27T12:55:53;94717.46;;;10.09;72.07
61814;BME280;57055;-35.296;149.168;2022-09-27T13:00:57;94721.98;;;10.20;72.75
61814;BME280;57055;-35.296;149.168;2022-09-27T13:03:44;94724.90;;;9.98;71.91